createdAt,value
2023-02-24T00:01:16.498Z,61.12
2023-02-24T00:03:42.797Z,61.28
2023-02-24T00:06:09.070Z,61.30
2023-02-24T00:08:35.333Z,61.87
2023-02-24T00:11:01.607Z,61.65
2023-02-24T00:13:27.857Z,61.41
2023-02-24T00:15:54.113Z,61.10
2023-02-24T00:18:20.360Z,62.18
2023-02-24T00:20:46.629Z,61.64
2023-02-24T00:23:12.875Z,62.67
2023-02-24T00:25:39.111Z,62.20
2023-02-24T00:28:05.358Z,62.29
2023-02-24T00:30:31.625Z,61.83
2023-02-24T00:32:57.918Z,61.83
2023-02-24T00:35:24.171Z,61.72
2023-02-24T00:37:50.429Z,62.10
2023-02-24T00:40:16.681Z,61.09
2023-02-24T00:42:42.928Z,60.09
2023-02-24T00:45:09.170Z,61.02
2023-02-24T00:47:35.405Z,61.45
2023-02-24T00:50:01.693Z,60.82
2023-02-24T00:52:27.977Z,61.50
2023-02-24T00:54:54.245Z,61.26
2023-02-24T00:57:20.530Z,61.72
2023-02-24T00:59:46.799Z,62.43
2023-02-24T01:02:13.058Z,62.34
2023-02-24T01:04:39.331Z,62.38
2023-02-24T01:07:05.582Z,62.30
2023-02-24T01:09:31.851Z,62.50
2023-02-24T01:11:58.164Z,62.25
2023-02-24T01:14:24.455Z,61.83
2023-02-24T01:16:50.712Z,62.03
2023-02-24T01:19:16.961Z,62.13
2023-02-24T01:21:43.205Z,62.89
2023-02-24T01:24:09.467Z,62.63
2023-02-24T01:26:35.730Z,62.14
2023-02-24T01:29:02.005Z,61.99
2023-02-24T01:31:28.363Z,62.80
2023-02-24T01:33:54.770Z,62.56
2023-02-24T01:36:21.062Z,62.42
2023-02-24T01:38:47.351Z,62.60
2023-02-24T01:41:13.593Z,62.19
2023-02-24T01:43:39.847Z,61.95
2023-02-24T01:46:06.145Z,62.50
2023-02-24T01:48:32.477Z,62.72
2023-02-24T01:50:58.754Z,62.87
2023-02-24T01:53:25.023Z,62.37
2023-02-24T01:55:51.291Z,62.72
2023-02-24T01:58:17.558Z,62.34
2023-02-24T02:00:43.913Z,61.70
2023-02-24T02:03:10.271Z,62.13
2023-02-24T02:05:36.514Z,62.18
2023-02-24T02:08:02.821Z,62.60
2023-02-24T02:10:29.103Z,63.51
2023-02-24T02:12:55.386Z,63.35
2023-02-24T02:15:21.644Z,63.27
2023-02-24T02:17:47.912Z,64.03
2023-02-24T02:20:14.165Z,63.91
2023-02-24T02:22:40.420Z,63.71
2023-02-24T02:25:06.682Z,63.91
2023-02-24T02:27:32.958Z,63.85
2023-02-24T02:29:59.229Z,64.03
2023-02-24T02:32:25.586Z,63.41
2023-02-24T02:34:51.895Z,63.33
2023-02-24T02:37:18.158Z,62.97
2023-02-24T02:39:44.436Z,62.26
2023-02-24T02:42:10.695Z,62.62
2023-02-24T02:44:36.940Z,61.66
2023-02-24T02:47:03.201Z,61.61
2023-02-24T02:49:29.447Z,62.50
2023-02-24T02:51:55.696Z,62.90
2023-02-24T02:54:21.963Z,63.03
2023-02-24T02:56:48.217Z,63.67
2023-02-24T02:59:14.462Z,63.33
2023-02-24T03:01:40.765Z,63.87
2023-02-24T03:04:07.038Z,64.28
2023-02-24T03:06:33.311Z,64.50
2023-02-24T03:08:59.562Z,64.21
2023-02-24T03:11:25.834Z,64.35
2023-02-24T03:13:52.110Z,64.18
2023-02-24T03:16:18.406Z,64.03
2023-02-24T03:18:44.672Z,64.17
2023-02-24T03:21:10.946Z,63.66
2023-02-24T03:23:37.190Z,63.30
2023-02-24T03:26:03.471Z,63.85
2023-02-24T03:28:29.737Z,63.31
2023-02-24T03:30:55.997Z,63.08
2023-02-24T03:33:22.288Z,63.20
2023-02-24T03:35:48.531Z,63.96
2023-02-24T03:38:14.797Z,63.90
2023-02-24T03:40:41.042Z,63.59
2023-02-24T03:43:07.301Z,63.55
2023-02-24T03:45:33.562Z,64.34
2023-02-24T03:47:59.835Z,63.84
2023-02-24T03:50:26.106Z,63.80
2023-02-24T03:52:52.379Z,63.54
2023-02-24T03:55:18.673Z,63.55
2023-02-24T03:57:44.950Z,64.03
2023-02-24T04:00:11.190Z,63.82
2023-02-24T04:02:37.474Z,64.19
2023-02-24T04:05:03.812Z,64.33
2023-02-24T04:07:30.124Z,64.84
2023-02-24T04:09:56.387Z,64.59
2023-02-24T04:12:22.682Z,65.05
2023-02-24T04:14:48.971Z,64.79
2023-02-24T04:17:15.231Z,65.10
2023-02-24T04:19:41.481Z,64.81
2023-02-24T04:22:07.764Z,65.38
2023-02-24T04:24:34.048Z,64.64
2023-02-24T04:27:00.316Z,64.70
2023-02-24T04:29:26.579Z,64.80
2023-02-24T04:31:53.037Z,64.83
2023-02-24T04:34:19.405Z,65.41
2023-02-24T04:36:45.673Z,64.68
2023-02-24T04:39:11.940Z,65.11
2023-02-24T04:41:38.197Z,65.13
2023-02-24T04:44:04.468Z,65.54
2023-02-24T04:46:30.753Z,65.75
2023-02-24T04:48:57.198Z,65.94
2023-02-24T04:51:23.629Z,65.76
2023-02-24T04:53:49.960Z,65.62
2023-02-24T04:56:16.211Z,66.02
2023-02-24T04:58:42.468Z,65.49
2023-02-24T05:01:08.739Z,66.19
2023-02-24T05:03:34.993Z,65.34
2023-02-24T05:06:01.322Z,65.35
2023-02-24T05:08:27.571Z,65.64
2023-02-24T05:10:53.851Z,65.29
2023-02-24T05:13:20.119Z,64.96
2023-02-24T05:15:46.440Z,64.97
2023-02-24T05:18:12.740Z,64.05
2023-02-24T05:20:39.022Z,65.04
2023-02-24T05:23:05.294Z,64.93
2023-02-24T05:25:31.579Z,63.74
2023-02-24T05:27:57.847Z,63.73
2023-02-24T05:30:24.139Z,64.52
2023-02-24T05:32:50.504Z,64.79
2023-02-24T05:35:16.800Z,65.02
2023-02-24T05:37:43.056Z,65.26
2023-02-24T05:40:09.361Z,65.78
2023-02-24T05:42:35.615Z,65.47
2023-02-24T05:45:01.876Z,65.13
2023-02-24T05:47:28.148Z,65.17
2023-02-24T05:49:54.410Z,65.76
2023-02-24T05:52:20.661Z,65.33
2023-02-24T05:54:46.928Z,65.17
2023-02-24T05:57:13.208Z,65.50
2023-02-24T05:59:39.473Z,66.05
2023-02-24T06:02:05.764Z,65.13
2023-02-24T06:04:32.092Z,64.21
2023-02-24T06:06:58.338Z,64.04
2023-02-24T06:09:24.603Z,64.76
2023-02-24T06:11:51.008Z,64.46
2023-02-24T06:14:17.290Z,64.90
2023-02-24T06:16:43.627Z,64.35
2023-02-24T06:19:09.992Z,64.56
2023-02-24T06:21:36.262Z,64.02
2023-02-24T06:24:02.550Z,63.13
2023-02-24T06:26:28.803Z,62.53
2023-02-24T06:28:55.058Z,62.73
2023-02-24T06:31:21.736Z,63.46
2023-02-24T06:33:48.190Z,64.02
2023-02-24T06:36:14.490Z,63.38
2023-02-24T06:38:40.772Z,63.17
2023-02-24T06:41:07.039Z,63.71
2023-02-24T06:43:33.315Z,67.85
2023-02-24T06:45:59.674Z,63.15
2023-02-24T06:48:25.942Z,62.36
2023-02-24T06:50:52.198Z,62.27
2023-02-24T06:53:18.480Z,62.23
2023-02-24T06:55:44.742Z,63.39
2023-02-24T06:58:11.006Z,63.84
2023-02-24T07:00:37.433Z,64.34
2023-02-24T07:03:03.722Z,64.76
2023-02-24T07:05:29.993Z,61.12
2023-02-24T07:07:56.249Z,60.19
2023-02-24T07:10:22.526Z,61.52
2023-02-24T07:12:48.794Z,62.19
2023-02-24T07:15:15.090Z,61.63
2023-02-24T07:17:41.342Z,61.40
2023-02-24T07:20:07.624Z,59.73
2023-02-24T07:22:33.884Z,60.95
2023-02-24T07:25:00.161Z,59.55
2023-02-24T07:27:26.429Z,60.82
2023-02-24T07:29:53.706Z,61.20
2023-02-24T07:32:20.159Z,62.89
2023-02-24T07:34:46.441Z,63.40
2023-02-24T07:37:12.719Z,63.78
2023-02-24T07:39:38.977Z,64.30
2023-02-24T07:42:05.267Z,64.26
2023-02-24T07:44:31.556Z,65.48
2023-02-24T07:46:57.814Z,64.86
2023-02-24T07:49:24.066Z,65.53
2023-02-24T07:51:50.324Z,66.73
2023-02-24T07:54:16.574Z,70.67
2023-02-24T07:56:42.851Z,65.35
2023-02-24T07:59:09.106Z,64.61
2023-02-24T08:01:35.354Z,65.33
2023-02-24T08:04:01.629Z,65.45
2023-02-24T08:06:27.903Z,65.65
2023-02-24T08:08:54.297Z,65.67
2023-02-24T08:11:20.854Z,65.66
2023-02-24T08:13:47.274Z,65.85
2023-02-24T08:16:13.580Z,65.38
2023-02-24T08:18:39.856Z,66.74
2023-02-24T08:21:06.130Z,66.12
2023-02-24T08:23:32.414Z,65.77
2023-02-24T08:25:58.704Z,66.21
2023-02-24T08:28:24.975Z,66.42
2023-02-24T08:30:51.331Z,65.52
2023-02-24T08:33:17.623Z,65.83
2023-02-24T08:35:43.893Z,66.70
2023-02-24T08:38:10.159Z,66.36
2023-02-24T08:40:36.413Z,65.72
2023-02-24T08:43:02.686Z,65.55
2023-02-24T08:45:28.932Z,66.27
2023-02-24T08:47:55.182Z,65.85
2023-02-24T08:50:21.442Z,65.29
2023-02-24T08:52:47.707Z,65.84
2023-02-24T08:55:13.954Z,65.93
2023-02-24T08:57:40.228Z,65.63
2023-02-24T09:00:06.490Z,65.24
2023-02-24T09:02:32.755Z,65.60
2023-02-24T09:04:59.105Z,65.50
2023-02-24T09:07:25.386Z,65.61
2023-02-24T09:09:51.645Z,65.39
2023-02-24T09:12:17.899Z,65.21
2023-02-24T09:14:44.166Z,65.46
2023-02-24T09:17:10.483Z,65.05
2023-02-24T09:19:36.756Z,64.84
2023-02-24T09:22:07.806Z,65.09
2023-02-24T09:24:36.554Z,64.52
2023-02-24T09:27:02.839Z,64.39
2023-02-24T09:29:29.122Z,64.87
2023-02-24T09:31:55.597Z,64.74
2023-02-24T09:34:22.049Z,65.38
2023-02-24T09:36:48.315Z,64.86
2023-02-24T09:39:14.737Z,64.93
2023-02-24T09:41:41.117Z,65.22
2023-02-24T09:44:07.691Z,64.96
2023-02-24T09:46:34.328Z,64.54
2023-02-24T09:49:00.711Z,64.88
2023-02-24T09:51:26.965Z,65.54
2023-02-24T09:53:53.222Z,65.13
2023-02-24T09:56:19.496Z,64.87
2023-02-24T09:58:45.804Z,64.66
2023-02-24T10:01:12.118Z,64.76
2023-02-24T10:03:38.414Z,64.44
2023-02-24T10:06:04.688Z,63.58
2023-02-24T10:08:30.981Z,62.65
2023-02-24T10:10:57.243Z,63.66
2023-02-24T10:13:23.536Z,63.20
2023-02-24T10:15:49.916Z,62.93
2023-02-24T10:18:16.190Z,63.03
2023-02-24T10:20:42.475Z,62.62
2023-02-24T10:23:08.767Z,62.08
2023-02-24T10:25:35.065Z,62.20
2023-02-24T10:28:01.342Z,62.00
2023-02-24T10:30:27.882Z,61.87
2023-02-24T10:32:54.380Z,61.55
2023-02-24T10:35:20.682Z,60.96
2023-02-24T10:37:46.967Z,60.59
2023-02-24T10:40:13.222Z,59.68
2023-02-24T10:42:39.522Z,60.63
2023-02-24T10:45:09.709Z,61.24
2023-02-24T10:47:36.222Z,61.14
2023-02-24T10:50:02.496Z,61.52
2023-02-24T10:52:28.782Z,61.49
2023-02-24T10:54:55.069Z,60.24
2023-02-24T10:57:21.327Z,59.96
2023-02-24T10:59:47.636Z,59.58
2023-02-24T11:02:13.968Z,59.05
2023-02-24T11:04:40.264Z,59.34
2023-02-24T11:07:06.533Z,58.46
2023-02-24T11:09:32.809Z,57.98
2023-02-24T11:11:59.103Z,57.51
2023-02-24T11:14:25.394Z,57.09
2023-02-24T11:16:51.679Z,56.76
2023-02-24T11:19:17.930Z,56.87
2023-02-24T11:21:44.197Z,57.00
2023-02-24T11:24:10.466Z,57.08
2023-02-24T11:26:36.732Z,56.38
2023-02-24T11:29:02.982Z,55.92
2023-02-24T11:31:29.327Z,54.07
2023-02-24T11:33:55.694Z,54.35
2023-02-24T11:36:21.965Z,54.70
2023-02-24T11:38:48.216Z,53.98
2023-02-24T11:41:14.471Z,54.55
2023-02-24T11:43:40.741Z,55.37
2023-02-24T11:46:07.321Z,55.24
2023-02-24T11:48:33.680Z,53.58
2023-02-24T11:50:59.948Z,53.60
2023-02-24T11:53:26.216Z,53.87
2023-02-24T11:55:52.469Z,52.97
2023-02-24T11:58:18.733Z,53.26
2023-02-24T12:00:46.921Z,53.09
2023-02-24T12:03:14.094Z,53.47
2023-02-24T12:05:40.410Z,52.60
2023-02-24T12:08:06.727Z,52.93
2023-02-24T12:10:33.097Z,53.21
2023-02-24T12:12:59.361Z,52.69
2023-02-24T12:15:25.629Z,53.35
2023-02-24T12:17:51.998Z,53.10
2023-02-24T12:20:18.339Z,50.40
2023-02-24T12:22:44.629Z,50.03
2023-02-24T12:25:10.894Z,50.34
2023-02-24T12:27:37.157Z,49.49
2023-02-24T12:30:03.431Z,49.77
2023-02-24T12:32:29.816Z,51.21
2023-02-24T12:34:56.156Z,50.23
2023-02-24T12:37:22.405Z,49.83
2023-02-24T12:39:48.666Z,49.69
2023-02-24T12:42:14.964Z,48.77
2023-02-24T12:44:41.228Z,50.16
2023-02-24T12:47:07.506Z,50.10
2023-02-24T12:49:33.763Z,48.72
2023-02-24T12:52:00.033Z,48.19
2023-02-24T12:54:26.285Z,48.50
2023-02-24T12:56:52.549Z,49.25
2023-02-24T12:59:18.837Z,50.02
2023-02-24T13:01:45.111Z,48.21
2023-02-24T13:04:11.379Z,49.43
2023-02-24T13:06:37.675Z,48.81
2023-02-24T13:09:03.927Z,47.30
2023-02-24T13:11:30.189Z,48.19
2023-02-24T13:13:56.482Z,48.28
2023-02-24T13:16:22.756Z,48.29
2023-02-24T13:18:49.027Z,48.35
2023-02-24T13:21:15.304Z,48.96
2023-02-24T13:23:41.576Z,46.84
2023-02-24T13:26:07.837Z,46.42
2023-02-24T13:28:34.103Z,47.73
2023-02-24T13:31:00.396Z,46.67
2023-02-24T13:33:26.689Z,45.72
2023-02-24T13:35:52.959Z,45.54
2023-02-24T13:38:19.223Z,46.40
2023-02-24T13:40:45.505Z,46.12
2023-02-24T13:43:11.771Z,45.01
2023-02-24T13:45:38.072Z,46.57
2023-02-24T13:48:04.344Z,45.92
2023-02-24T13:50:30.657Z,45.82
2023-02-24T13:52:56.922Z,45.61
2023-02-24T13:55:23.202Z,45.55
2023-02-24T13:57:49.488Z,45.42
2023-02-24T14:00:15.769Z,45.95
2023-02-24T14:02:42.072Z,44.50
2023-02-24T14:05:08.500Z,45.31
2023-02-24T14:07:34.810Z,45.69
2023-02-24T14:10:01.080Z,47.61
2023-02-24T14:12:27.374Z,47.49
2023-02-24T14:14:53.642Z,47.25
2023-02-24T14:17:19.890Z,47.37
2023-02-24T14:19:46.171Z,47.44
2023-02-24T14:22:13.237Z,45.27
2023-02-24T14:24:39.566Z,46.17
2023-02-24T14:27:05.846Z,45.91
2023-02-24T14:29:34.094Z,45.42
2023-02-24T14:32:02.821Z,46.81
2023-02-24T14:34:29.146Z,47.26
2023-02-24T14:36:55.409Z,46.33
2023-02-24T14:39:21.673Z,44.24
2023-02-24T14:41:47.939Z,44.25
2023-02-24T14:44:14.207Z,45.87
2023-02-24T14:46:40.513Z,46.63
2023-02-24T14:49:06.858Z,46.09
2023-02-24T14:51:33.128Z,45.88
2023-02-24T14:53:59.403Z,44.53
2023-02-24T14:56:25.763Z,44.17
2023-02-24T14:58:52.142Z,44.83
2023-02-24T15:01:18.462Z,44.71
2023-02-24T15:03:44.727Z,44.65
2023-02-24T15:06:10.989Z,45.23
2023-02-24T15:08:37.258Z,44.60
2023-02-24T15:11:03.510Z,44.04
2023-02-24T15:13:29.801Z,43.61
2023-02-24T15:15:56.194Z,41.95
2023-02-24T15:18:22.462Z,43.76
2023-02-24T15:20:48.730Z,42.98
2023-02-24T15:23:14.993Z,42.85
2023-02-24T15:25:43.012Z,44.63
2023-02-24T15:28:09.459Z,44.81
2023-02-24T15:30:35.769Z,44.71
2023-02-24T15:33:02.192Z,45.30
2023-02-24T15:35:28.494Z,44.27
2023-02-24T15:37:54.758Z,43.72
2023-02-24T15:40:21.030Z,43.92
2023-02-24T15:42:47.288Z,44.49
2023-02-24T15:45:13.558Z,44.38
2023-02-24T15:47:39.827Z,42.96
2023-02-24T15:50:06.076Z,42.70
2023-02-24T15:52:32.323Z,43.80
2023-02-24T15:54:58.602Z,43.46
2023-02-24T15:57:24.917Z,44.09
2023-02-24T15:59:51.196Z,43.70
2023-02-24T16:02:17.460Z,43.24
2023-02-24T16:04:43.725Z,43.70
2023-02-24T16:07:09.976Z,43.89
2023-02-24T16:09:36.251Z,42.95
2023-02-24T16:12:02.516Z,43.11
2023-02-24T16:14:28.798Z,43.14
2023-02-24T16:16:55.095Z,44.04
2023-02-24T16:19:21.353Z,44.39
2023-02-24T16:21:47.602Z,45.48
2023-02-24T16:24:14.180Z,46.89
2023-02-24T16:26:40.491Z,46.62
2023-02-24T16:29:06.753Z,47.54
2023-02-24T16:31:33.157Z,45.95
2023-02-24T16:33:59.741Z,47.84
2023-02-24T16:36:26.778Z,46.36
2023-02-24T16:38:53.294Z,45.74
2023-02-24T16:41:19.552Z,45.86
2023-02-24T16:43:45.866Z,47.05
2023-02-24T16:46:12.216Z,45.77
2023-02-24T16:48:38.583Z,45.33
2023-02-24T16:51:04.849Z,45.70
2023-02-24T16:53:31.128Z,46.71
2023-02-24T16:55:57.400Z,46.05
2023-02-24T16:58:23.682Z,46.76
2023-02-24T17:00:50.058Z,46.80
2023-02-24T17:03:16.482Z,47.60
2023-02-24T17:05:43.930Z,47.73
2023-02-24T17:08:10.586Z,49.88
2023-02-24T17:10:36.846Z,48.57
2023-02-24T17:13:03.107Z,48.48
2023-02-24T17:15:29.374Z,48.36
2023-02-24T17:17:55.665Z,48.31
2023-02-24T17:20:21.917Z,49.35
2023-02-24T17:22:48.162Z,48.77
2023-02-24T17:25:14.443Z,48.48
2023-02-24T17:27:40.748Z,47.76
2023-02-24T17:30:07.026Z,47.75
2023-02-24T17:32:33.341Z,48.37
2023-02-24T17:34:59.604Z,48.73
2023-02-24T17:37:25.874Z,49.07
2023-02-24T17:39:52.127Z,49.86
2023-02-24T17:42:18.394Z,49.61
2023-02-24T17:44:44.654Z,50.04
2023-02-24T17:47:10.907Z,50.59
2023-02-24T17:49:37.161Z,50.29
2023-02-24T17:52:06.124Z,50.36
2023-02-24T17:54:32.542Z,50.85
2023-02-24T17:56:58.814Z,50.56
2023-02-24T17:59:25.197Z,50.44
2023-02-24T18:01:51.485Z,51.04
2023-02-24T18:04:17.795Z,51.06
2023-02-24T18:06:44.050Z,50.33
2023-02-24T18:09:10.315Z,50.25
2023-02-24T18:11:36.572Z,50.39
2023-02-24T18:14:02.832Z,50.54
2023-02-24T18:16:29.141Z,50.54
2023-02-24T18:18:55.429Z,50.80
2023-02-24T18:21:21.686Z,50.67
2023-02-24T18:23:47.944Z,50.80
2023-02-24T18:26:14.213Z,51.37
2023-02-24T18:28:40.475Z,50.90
2023-02-24T18:31:06.832Z,51.37
2023-02-24T18:33:33.257Z,52.16
2023-02-24T18:35:59.547Z,52.71
2023-02-24T18:38:25.826Z,53.12
2023-02-24T18:40:52.090Z,53.29
2023-02-24T18:43:18.358Z,53.27
2023-02-24T18:45:44.629Z,53.51
2023-02-24T18:48:10.894Z,53.46
2023-02-24T18:50:37.167Z,53.70
2023-02-24T18:53:03.441Z,53.86
2023-02-24T18:55:29.703Z,53.87
2023-02-24T18:57:55.961Z,53.92
2023-02-24T19:00:22.218Z,53.67
2023-02-24T19:02:48.510Z,53.61
2023-02-24T19:05:14.794Z,53.16
2023-02-24T19:07:41.070Z,53.42
2023-02-24T19:10:07.355Z,53.42
2023-02-24T19:12:33.684Z,52.89
2023-02-24T19:14:59.927Z,53.33
2023-02-24T19:17:26.187Z,53.35
2023-02-24T19:19:52.458Z,53.95
2023-02-24T19:22:18.706Z,54.40
2023-02-24T19:24:44.975Z,54.02
2023-02-24T19:27:11.244Z,53.48
2023-02-24T19:29:37.486Z,53.17
2023-02-24T19:32:03.820Z,52.52
2023-02-24T19:34:30.152Z,52.34
2023-02-24T19:36:56.394Z,52.65
2023-02-24T19:39:22.658Z,52.60
2023-02-24T19:41:49.900Z,51.87
2023-02-24T19:44:16.344Z,52.75
2023-02-24T19:46:42.590Z,52.83
2023-02-24T19:49:08.835Z,52.83
2023-02-24T19:51:35.109Z,53.11
2023-02-24T19:54:01.353Z,53.73
2023-02-24T19:56:27.656Z,54.46
2023-02-24T19:58:53.918Z,54.65
2023-02-24T20:01:20.173Z,54.63
2023-02-24T20:03:46.474Z,54.81
2023-02-24T20:06:12.724Z,54.33
2023-02-24T20:08:38.976Z,55.15
2023-02-24T20:11:05.229Z,55.22
2023-02-24T20:13:31.490Z,55.60
2023-02-24T20:15:57.732Z,56.26
2023-02-24T20:18:24.164Z,56.08
2023-02-24T20:20:50.444Z,56.01
2023-02-24T20:23:16.702Z,56.17
2023-02-24T20:25:43.042Z,55.81
2023-02-24T20:28:09.299Z,55.64
2023-02-24T20:30:35.574Z,56.36
2023-02-24T20:33:01.875Z,56.31
2023-02-24T20:35:28.158Z,56.00
2023-02-24T20:37:54.427Z,54.90
2023-02-24T20:40:20.697Z,54.11
2023-02-24T20:42:46.956Z,54.47
2023-02-24T20:45:13.211Z,52.96
2023-02-24T20:47:39.472Z,54.55
2023-02-24T20:50:05.759Z,53.91
2023-02-24T20:52:32.032Z,54.64
2023-02-24T20:54:58.297Z,54.46
2023-02-24T20:57:24.569Z,55.34
2023-02-24T21:00:02.845Z,55.26
2023-02-24T21:02:29.662Z,55.97
2023-02-24T21:04:55.988Z,55.57
2023-02-24T21:07:22.261Z,56.31
2023-02-24T21:09:48.587Z,57.04
2023-02-24T21:12:14.877Z,56.20
2023-02-24T21:14:41.153Z,56.20
2023-02-24T21:17:07.393Z,56.81
2023-02-24T21:19:33.656Z,56.71
2023-02-24T21:21:59.922Z,56.60
2023-02-24T21:24:26.187Z,56.54
2023-02-24T21:26:52.433Z,57.58
2023-02-24T21:29:18.682Z,57.32
2023-02-24T21:31:45.132Z,58.46
2023-02-24T21:34:11.474Z,58.75
2023-02-24T21:36:37.742Z,58.45
2023-02-24T21:39:04.017Z,59.31
2023-02-24T21:41:30.298Z,58.85
2023-02-24T21:43:56.583Z,58.26
2023-02-24T21:46:23.192Z,60.04
2023-02-24T21:48:49.634Z,59.82
2023-02-24T21:51:15.877Z,59.55
2023-02-24T21:53:42.160Z,60.01
2023-02-24T21:56:08.433Z,59.77
2023-02-24T21:58:34.695Z,59.91
2023-02-24T22:01:00.932Z,59.12
2023-02-24T22:03:27.258Z,59.69
2023-02-24T22:05:53.545Z,60.23
2023-02-24T22:08:19.825Z,58.11
2023-02-24T22:10:46.089Z,60.01
2023-02-24T22:13:12.341Z,58.79
2023-02-24T22:15:38.602Z,61.00
2023-02-24T22:18:04.870Z,58.40
2023-02-24T22:20:31.115Z,58.68
2023-02-24T22:22:57.394Z,56.75
2023-02-24T22:25:23.634Z,57.60
2023-02-24T22:27:49.946Z,55.98
2023-02-24T22:30:16.205Z,57.82
2023-02-24T22:32:42.517Z,57.63
2023-02-24T22:35:08.818Z,57.51
2023-02-24T22:37:35.163Z,57.61
2023-02-24T22:40:01.452Z,59.78
2023-02-24T22:42:27.722Z,56.55
2023-02-24T22:44:53.998Z,58.12
2023-02-24T22:47:20.242Z,56.86
2023-02-24T22:49:46.483Z,55.47
2023-02-24T22:52:12.760Z,56.29
2023-02-24T22:54:39.038Z,56.73
2023-02-24T22:57:05.340Z,57.24
2023-02-24T22:59:31.597Z,58.50
2023-02-24T23:01:57.906Z,58.87
2023-02-24T23:04:24.180Z,57.76
2023-02-24T23:06:50.485Z,58.69
2023-02-24T23:09:16.962Z,58.10
2023-02-24T23:11:43.236Z,56.67
2023-02-24T23:14:09.485Z,55.29
2023-02-24T23:16:35.810Z,54.02
2023-02-24T23:19:02.074Z,54.68
2023-02-24T23:21:28.334Z,56.26
2023-02-24T23:23:54.575Z,57.39
2023-02-24T23:26:21.317Z,55.17
2023-02-24T23:28:47.704Z,55.38
2023-02-24T23:31:14.072Z,57.49
2023-02-24T23:33:40.366Z,57.57
2023-02-24T23:36:06.636Z,57.28
2023-02-24T23:38:32.880Z,57.50
2023-02-24T23:40:59.159Z,55.42
2023-02-24T23:43:25.414Z,56.69
2023-02-24T23:45:51.750Z,57.48
2023-02-24T23:48:18.037Z,57.56
2023-02-24T23:50:44.293Z,53.59
2023-02-24T23:53:10.577Z,52.38
2023-02-24T23:55:36.876Z,52.67
2023-02-24T23:58:03.160Z,55.24
